Time;durP1;ratioP1;P1;durP2;ratioP2;P2;SDS_P1;SDS_P2;PMS_P1;PMS_P2;Temp;Humidity;BMP_temperature;BMP_pressure;BME280_temperature;BME280_humidity;BME280_pressure;Samples;Min_cycle;Max_cycle;Signal;HPM_P1;HPM_P2
2021/12/20 00:02:29;;;;;;;10.77;7.20;;;9.20;69.40;;;;;;4940041;29;20019;-85
2021/12/20 00:06:00;;;;;;;;;;;;;;;;;;;;;
2021/12/20 00:11:46;;;;;;;9.90;6.78;;;9.00;71.30;;;;;;4824453;29;20033;-84
2021/12/20 00:21:05;;;;;;;11.95;7.00;;;10.20;67.70;;;;;;4770982;30;20491;-83
2021/12/20 00:24:08;;;;;;;11.65;7.88;;;9.50;69.10;;;;;;4767247;30;20048;-84
2021/12/20 01:33:02;;;;;;;4.53;2.72;;;10.60;64.50;;;;;;5012293;28;20058;-83
2021/12/20 01:35:31;;;;;;;4.75;2.92;;;10.70;64.30;;;;;;5014362;28;20033;-82
2021/12/20 01:40:58;;;;;;;4.68;2.42;;;10.40;63.60;;;;;;5014157;28;20045;-82
2021/12/20 01:43:33;;;;;;;4.70;3.03;;;10.00;64.80;;;;;;4996116;28;20026;-82
2021/12/20 01:46:15;;;;;;;4.57;2.45;;;10.30;63.40;;;;;;4996104;28;20068;-81
2021/12/20 01:49:39;;;;;;;4.40;2.63;;;9.90;63.70;;;;;;4996629;28;20500;-83
2021/12/20 01:52:11;;;;;;;3.88;2.30;;;9.60;65.30;;;;;;4991710;28;20444;-82
2021/12/20 01:54:37;;;;;;;4.57;2.47;;;9.90;63.30;;;;;;4996637;28;20056;-81
2021/12/20 01:57:06;;;;;;;5.65;2.65;;;10.00;62.80;;;;;;4996121;28;20397;-82
2021/12/20 01:59:49;;;;;;;5.85;2.60;;;10.00;63.30;;;;;;4996170;28;20462;-81
2021/12/20 02:02:43;;;;;;;5.50;3.17;;;10.10;62.60;;;;;;4995741;28;20120;-88
2021/12/20 02:11:45;;;;;;;5.57;3.05;;;10.40;61.60;;;;;;4933521;29;20106;-82
2021/12/20 02:14:24;;;;;;;5.45;3.40;;;10.00;61.80;;;;;;4934201;28;20103;-83
2021/12/20 02:22:08;;;;;;;;;;;;;;;;;;;;;
2021/12/20 02:24:57;;;;;;;;;;;;;;;;;;;;;
2021/12/20 02:50:01;;;;;;;12.70;6.63;;;10.30;62.80;;;;;;4698460;30;20162;-82
2021/12/20 02:52:27;;;;;;;13.10;6.80;;;10.30;62.70;;;;;;4697609;30;20049;-81
2021/12/20 02:55:03;;;;;;;11.90;6.10;;;9.90;63.60;;;;;;4697835;30;20615;-84
2021/12/20 02:57:36;;;;;;;12.30;6.30;;;9.60;64.10;;;;;;4736448;30;20040;-82
2021/12/20 03:00:20;;;;;;;12.80;6.22;;;9.40;65.40;;;;;;4752970;30;20043;-82
2021/12/20 03:02:51;;;;;;;6.13;3.72;;;9.40;64.30;;;;;;4796173;29;20081;-82
2021/12/20 03:05:31;;;;;;;5.78;3.10;;;9.30;63.70;;;;;;4829253;29;20078;-82
2021/12/20 03:08:09;;;;;;;5.70;3.00;;;9.20;62.40;;;;;;4868648;29;20145;-83
2021/12/20 03:11:11;;;;;;;7.13;2.88;;;9.20;62.20;;;;;;4861050;29;20040;-85
2021/12/20 03:13:37;;;;;;;4.40;2.13;;;9.30;59.30;;;;;;4807123;29;20503;-82
2021/12/20 03:16:06;;;;;;;4.70;2.80;;;9.30;59.30;;;;;;4807741;29;20063;-87
2021/12/20 03:18:40;;;;;;;3.70;1.98;;;9.10;59.40;;;;;;4792367;29;20023;-83
2021/12/20 03:21:13;;;;;;;3.78;1.90;;;9.00;57.80;;;;;;4853247;29;20209;-81
2021/12/20 03:24:11;;;;;;;4.43;2.58;;;9.30;58.40;;;;;;4843383;29;20160;-83
2021/12/20 03:28:02;;;;;;;3.72;2.20;;;9.70;57.30;;;;;;4792157;29;20043;-83
2021/12/20 03:30:04;;;;;;;3.47;1.83;;;10.00;56.40;;;;;;4746418;30;20147;-85
2021/12/20 03:33:03;;;;;;;4.43;1.80;;;9.60;56.40;;;;;;4751430;30;20060;-83
2021/12/20 03:35:36;;;;;;;5.57;2.10;;;9.60;57.20;;;;;;4753419;30;20067;-82
2021/12/20 03:39:12;;;;;;;;;;;;;;;;;;;;;
2021/12/20 03:42:41;;;;;;;;;;;;;;;;;;;;;
2021/12/20 03:45:57;;;;;;;5.90;2.40;;;10.00;55.10;;;;;;4724588;30;20044;-83
2021/12/20 03:48:35;;;;;;;4.13;2.05;;;10.00;55.30;;;;;;4760725;29;20529;-82
2021/12/20 03:51:02;;;;;;;4.28;2.40;;;10.10;54.70;;;;;;4806671;29;20045;-82
2021/12/20 03:53:43;;;;;;;4.30;2.05;;;9.70;55.70;;;;;;4806581;29;20101;-83
2021/12/20 03:56:14;;;;;;;3.50;2.10;;;9.50;55.70;;;;;;4806430;29;20045;-81
2021/12/20 04:05:40;;;;;;;3.40;1.90;;;8.90;58.30;;;;;;4843026;29;20467;-83
2021/12/20 04:08:07;;;;;;;4.97;2.00;;;9.00;57.80;;;;;;4843800;29;20509;-81
2021/12/20 04:10:36;;;;;;;5.95;2.50;;;8.80;58.10;;;;;;4846132;29;20045;-82
2021/12/20 04:13:32;;;;;;;5.95;2.70;;;8.70;58.70;;;;;;4861304;29;20450;-82
2021/12/20 04:15:58;;;;;;;6.03;2.70;;;8.50;59.00;;;;;;4843636;29;20034;-82
2021/12/20 04:18:36;;;;;;;5.13;2.50;;;8.30;59.00;;;;;;4841734;29;20045;-83
2021/12/20 04:21:03;;;;;;;5.07;2.20;;;8.50;58.80;;;;;;4842418;29;20026;-82
2021/12/20 04:23:29;;;;;;;4.70;2.15;;;8.50;57.80;;;;;;4827394;29;20042;-83
2021/12/20 04:25:55;;;;;;;5.30;2.00;;;8.60;57.50;;;;;;4876121;29;20481;-82
2021/12/20 04:28:21;;;;;;;4.88;2.22;;;8.80;57.40;;;;;;4900397;29;20054;-83
2021/12/20 04:30:47;;;;;;;4.72;2.30;;;8.70;56.40;;;;;;4902025;29;20046;-82
2021/12/20 04:33:52;;;;;;;5.00;2.25;;;8.90;56.70;;;;;;4901155;29;20427;-82
2021/12/20 04:36:17;;;;;;;4.68;2.00;;;8.90;56.00;;;;;;4913960;29;20505;-82
2021/12/20 04:38:43;;;;;;;5.70;2.28;;;8.60;56.30;;;;;;4897875;29;20036;-82
2021/12/20 04:41:21;;;;;;;4.93;2.10;;;8.50;57.00;;;;;;4891098;29;20044;-83
2021/12/20 04:43:47;;;;;;;4.80;2.38;;;8.80;56.90;;;;;;4941958;29;20038;-82
2021/12/20 04:46:47;;;;;;;3.72;1.88;;;8.70;55.90;;;;;;4808303;27;9304699;-83
2021/12/20 04:49:16;;;;;;;3.33;1.85;;;8.30;57.80;;;;;;5093125;28;20067;-81
2021/12/20 04:51:45;;;;;;;4.43;2.25;;;8.10;57.90;;;;;;5093248;28;20023;-80
2021/12/20 04:54:24;;;;;;;6.03;3.28;;;8.10;58.80;;;;;;5092525;28;20111;-80
2021/12/20 04:56:50;;;;;;;7.00;2.58;;;8.40;58.70;;;;;;5074487;28;20024;-80
2021/12/20 05:02:37;;;;;;;12.80;5.97;;;8.60;58.50;;;;;;5001389;28;20034;-81
2021/12/20 05:05:34;;;;;;;;;;;;;;;;;;;;;
2021/12/20 05:08:02;;;;;;;5.95;2.67;;;8.00;59.20;;;;;;5007414;28;20022;-80
2021/12/20 05:10:43;;;;;;;5.70;2.65;;;7.90;59.80;;;;;;4990821;28;20073;-80
2021/12/20 05:13:12;;;;;;;5.97;2.50;;;7.80;59.20;;;;;;4996612;28;20034;-80
2021/12/20 05:15:58;;;;;;;5.95;2.65;;;7.80;59.80;;;;;;5003827;28;20023;-81
2021/12/20 05:18:26;;;;;;;5.10;2.60;;;8.00;58.50;;;;;;4989084;28;20038;-79
2021/12/20 05:49:44;;;;;;;7.82;3.35;;;8.00;58.30;;;;;;4927708;28;20191;-82
2021/12/20 05:52:10;;;;;;;5.25;2.78;;;8.20;57.20;;;;;;4930956;29;20142;-82
2021/12/20 05:54:46;;;;;;;6.47;3.10;;;8.10;57.80;;;;;;4931146;29;20095;-83
2021/12/20 06:32:22;;;;;;;7.93;2.22;;;7.90;55.00;;;;;;4879676;29;20033;-80
2021/12/20 06:35:02;;;;;;;6.38;2.38;;;7.90;55.10;;;;;;4880087;29;20127;-82
2021/12/20 06:37:43;;;;;;;5.43;2.72;;;7.40;55.20;;;;;;4879691;29;20036;-82
2021/12/20 06:40:59;;;;;;;3.85;2.03;;;7.50;56.00;;;;;;4864099;29;20052;-84
2021/12/20 06:43:24;;;;;;;5.03;2.13;;;7.80;55.10;;;;;;4883462;29;20045;-83
2021/12/20 06:46:20;;;;;;;6.45;2.50;;;7.50;55.20;;;;;;4884540;29;20037;-82
2021/12/20 06:48:46;;;;;;;11.65;5.15;;;7.10;56.30;;;;;;4856974;29;20037;-81
2021/12/20 06:51:12;;;;;;;17.40;9.43;;;7.20;56.20;;;;;;4913253;29;20055;-81
2021/12/20 06:53:38;;;;;;;6.88;3.40;;;7.40;55.30;;;;;;4938807;29;20126;-81
2021/12/20 06:56:03;;;;;;;6.78;3.55;;;7.50;55.90;;;;;;4938816;28;20518;-81
2021/12/20 06:58:29;;;;;;;5.78;2.30;;;7.10;55.00;;;;;;4939046;29;20085;-80
2021/12/20 07:00:55;;;;;;;8.60;3.80;;;6.80;56.90;;;;;;4958178;28;20129;-81
2021/12/20 07:03:22;;;;;;;4.32;2.35;;;6.60;57.80;;;;;;5013592;28;20095;-81
2021/12/20 07:05:51;;;;;;;5.00;2.60;;;6.90;56.50;;;;;;5054528;28;20067;-82
2021/12/20 07:08:17;;;;;;;8.00;4.75;;;7.00;57.00;;;;;;5035573;28;20025;-80
2021/12/20 07:10:43;;;;;;;6.70;3.15;;;7.10;56.80;;;;;;5036704;28;20025;-84
2021/12/20 07:13:09;;;;;;;7.30;4.63;;;7.00;56.10;;;;;;5036616;28;20468;-81
2021/12/20 07:15:35;;;;;;;4.57;2.30;;;7.20;55.60;;;;;;5054819;28;20028;-81
2021/12/20 07:18:01;;;;;;;8.43;2.67;;;7.00;56.20;;;;;;5054555;28;20025;-80
2021/12/20 07:20:27;;;;;;;5.55;3.05;;;7.20;56.00;;;;;;5036056;28;20033;-80
2021/12/20 07:22:53;;;;;;;4.13;2.17;;;7.20;55.60;;;;;;5054012;28;20507;-84
2021/12/20 07:25:20;;;;;;;5.47;2.53;;;7.30;56.40;;;;;;5036206;28;20033;-81
2021/12/20 07:27:50;;;;;;;6.30;3.10;;;7.30;55.50;;;;;;5016844;28;20022;-81
2021/12/20 07:30:17;;;;;;;8.77;4.28;;;7.40;55.40;;;;;;5037466;28;20036;-82
2021/12/20 07:32:43;;;;;;;5.00;2.28;;;7.60;55.10;;;;;;5035862;28;20029;-82
2021/12/20 07:35:09;;;;;;;6.00;2.75;;;7.50;56.00;;;;;;5054266;28;20025;-81
2021/12/20 07:37:36;;;;;;;6.90;2.55;;;7.70;55.40;;;;;;5036403;28;20534;-83
2021/12/20 07:40:03;;;;;;;6.95;2.97;;;7.90;54.70;;;;;;5036302;28;20108;-82
2021/12/20 07:42:58;;;;;;;6.47;2.92;;;8.00;53.90;;;;;;5054241;28;20104;-84
2021/12/20 07:45:24;;;;;;;4.90;2.35;;;8.00;54.80;;;;;;4937050;29;20164;-81
2021/12/20 07:47:51;;;;;;;8.35;2.90;;;8.30;54.90;;;;;;4973770;23;20398;-81
2021/12/20 07:50:18;;;;;;;33.78;15.77;;;8.60;53.80;;;;;;5065203;28;20410;-83
2021/12/20 07:53:32;;;;;;;8.45;3.72;;;8.60;53.50;;;;;;5092716;28;20035;-82
2021/12/20 07:55:58;;;;;;;11.55;5.43;;;9.00;53.70;;;;;;5075589;28;20024;-82
2021/12/20 07:58:27;;;;;;;34.70;17.15;;;9.00;52.00;;;;;;5076210;28;20528;-82
2021/12/20 08:00:52;;;;;;;25.67;12.15;;;8.70;53.50;;;;;;5073079;28;20024;-82
2021/12/20 08:03:18;;;;;;;19.00;8.27;;;8.70;54.10;;;;;;5074632;28;20313;-81
2021/12/20 08:05:44;;;;;;;6.90;3.33;;;8.80;54.00;;;;;;5092488;28;20093;-82
2021/12/20 08:08:10;;;;;;;6.90;3.63;;;8.90;52.80;;;;;;5075673;28;20047;-83
2021/12/20 08:10:36;;;;;;;7.07;3.30;;;8.90;53.20;;;;;;5075240;28;20060;-82
2021/12/20 08:13:03;;;;;;;6.05;3.15;;;9.10;53.00;;;;;;5093108;28;20024;-82
2021/12/20 08:15:29;;;;;;;5.75;2.67;;;8.90;53.10;;;;;;5073511;28;20039;-82
2021/12/20 08:17:57;;;;;;;6.68;3.15;;;8.60;54.30;;;;;;5073344;28;20020;-82
2021/12/20 08:20:24;;;;;;;7.38;2.80;;;8.40;54.30;;;;;;5073460;28;20128;-81
2021/12/20 08:22:50;;;;;;;4.72;2.50;;;8.40;54.90;;;;;;5073462;28;20078;-82
2021/12/20 08:25:18;;;;;;;4.68;2.33;;;8.80;53.50;;;;;;5073591;28;20383;-81
2021/12/20 08:28:00;;;;;;;6.10;2.72;;;8.70;52.70;;;;;;5073434;28;20051;-82
2021/12/20 08:30:25;;;;;;;6.13;2.72;;;8.60;54.00;;;;;;5075112;28;20020;-82
2021/12/20 08:32:51;;;;;;;6.10;3.40;;;8.80;54.10;;;;;;5075238;28;20023;-82
2021/12/20 08:35:17;;;;;;;8.82;4.40;;;8.80;53.80;;;;;;5092106;28;20075;-81
2021/12/20 08:37:43;;;;;;;7.30;4.18;;;9.20;52.90;;;;;;5075585;28;20122;-82
2021/12/20 08:40:14;;;;;;;7.25;3.53;;;9.50;53.00;;;;;;5093706;28;20042;-82
2021/12/20 08:42:41;;;;;;;6.53;2.72;;;9.20;52.30;;;;;;5075137;28;20082;-81
2021/12/20 08:45:09;;;;;;;11.18;5.57;;;9.60;52.90;;;;;;5074589;28;20028;-81
2021/12/20 08:47:35;;;;;;;12.75;6.85;;;10.90;51.40;;;;;;5075174;28;20040;-81
2021/12/20 08:50:04;;;;;;;10.15;5.90;;;12.70;48.40;;;;;;5093298;28;20115;-81
2021/12/20 08:52:30;;;;;;;7.70;4.25;;;14.00;45.90;;;;;;5075428;28;20512;-82
2021/12/20 08:54:56;;;;;;;9.73;4.65;;;14.70;44.80;;;;;;5075283;28;20028;-83
2021/12/20 08:57:22;;;;;;;6.88;3.53;;;15.30;43.80;;;;;;5075415;28;20024;-84
2021/12/20 08:59:48;;;;;;;5.47;2.78;;;15.50;43.50;;;;;;5075603;28;20543;-85
2021/12/20 09:02:14;;;;;;;4.95;2.67;;;16.10;42.70;;;;;;5075550;28;20050;-84
2021/12/20 09:04:42;;;;;;;4.40;2.25;;;17.20;42.30;;;;;;5075254;28;20024;-88
2021/12/20 09:07:14;;;;;;;6.15;2.25;;;17.70;41.30;;;;;;5075276;28;20395;-83
2021/12/20 09:09:43;;;;;;;4.40;2.00;;;17.80;40.60;;;;;;5074991;28;20028;-83
2021/12/20 09:12:09;;;;;;;5.15;2.72;;;18.30;40.00;;;;;;5092924;28;20379;-82
2021/12/20 09:14:36;;;;;;;5.80;3.03;;;17.10;40.20;;;;;;5074636;28;20052;-80
2021/12/20 09:17:08;;;;;;;4.57;2.08;;;17.20;41.60;;;;;;5074997;28;20089;-82
2021/12/20 09:19:36;;;;;;;5.20;1.88;;;17.70;40.10;;;;;;5074796;28;20031;-84
2021/12/20 09:22:29;;;;;;;4.22;2.08;;;16.50;40.60;;;;;;5074665;28;20024;-85
2021/12/20 09:24:58;;;;;;;3.88;1.92;;;15.90;41.90;;;;;;4991277;28;20129;-84
2021/12/20 09:27:24;;;;;;;4.18;1.90;;;16.70;41.90;;;;;;4991413;28;20038;-81
2021/12/20 09:29:50;;;;;;;4.65;2.15;;;17.80;40.70;;;;;;4975170;28;20508;-83
2021/12/20 09:32:16;;;;;;;4.63;2.00;;;17.70;41.90;;;;;;4976861;28;20393;-82
2021/12/20 09:34:42;;;;;;;4.85;2.00;;;16.90;41.60;;;;;;4978544;28;20448;-82
2021/12/20 09:37:08;;;;;;;4.75;2.50;;;16.80;41.50;;;;;;4995015;28;20563;-82
2021/12/20 09:39:38;;;;;;;4.55;2.05;;;17.50;40.70;;;;;;4978723;28;20027;-81
2021/12/20 09:42:06;;;;;;;5.77;2.53;;;15.80;40.90;;;;;;4978117;28;20042;-81
2021/12/20 09:44:32;;;;;;;6.47;2.97;;;15.00;43.00;;;;;;4978532;28;20038;-81
2021/12/20 09:47:01;;;;;;;5.57;2.10;;;15.00;43.40;;;;;;4978479;28;20031;-82
2021/12/20 09:49:28;;;;;;;4.10;2.20;;;15.00;43.80;;;;;;4977956;28;20185;-82
2021/12/20 09:51:57;;;;;;;6.22;2.22;;;16.40;43.60;;;;;;4994909;28;20026;-81
2021/12/20 09:54:29;;;;;;;6.40;3.72;;;16.40;42.00;;;;;;4994615;28;20094;-83
2021/12/20 09:56:57;;;;;;;7.38;4.25;;;16.10;42.10;;;;;;4994464;28;20042;-82
2021/12/20 09:59:44;;;;;;;8.63;5.10;;;16.00;42.70;;;;;;4994396;28;20023;-83
2021/12/20 10:02:27;;;;;;;7.53;4.03;;;17.40;42.10;;;;;;5045244;28;20040;-83
2021/12/20 10:04:55;;;;;;;8.88;4.65;;;17.90;40.40;;;;;;5057922;28;20062;-82
2021/12/20 10:07:25;;;;;;;6.22;3.15;;;15.70;42.40;;;;;;5057782;28;20075;-83
2021/12/20 10:10:00;;;;;;;6.22;4.13;;;15.60;42.40;;;;;;5057827;28;20501;-82
2021/12/20 10:12:27;;;;;;;6.63;3.55;;;14.90;42.80;;;;;;5056540;28;20373;-82
2021/12/20 10:15:08;;;;;;;6.00;3.50;;;14.80;43.90;;;;;;5057678;28;20052;-81
2021/12/20 10:17:54;;;;;;;7.63;4.47;;;13.60;45.10;;;;;;5075503;28;20138;-81
2021/12/20 10:20:33;;;;;;;4.65;2.05;;;13.10;46.60;;;;;;5058244;28;20110;-82
2021/12/20 10:26:21;;;;;;;4.55;2.30;;;9.80;49.70;;;;;;5075295;28;20044;-81
2021/12/20 10:28:53;;;;;;;5.93;2.05;;;9.50;51.50;;;;;;5057988;28;20067;-82
2021/12/20 10:31:25;;;;;;;10.00;4.70;;;8.80;51.50;;;;;;5057567;28;20094;-82
2021/12/20 10:33:58;;;;;;;6.15;2.72;;;8.20;53.50;;;;;;5057220;28;20143;-82
2021/12/20 10:36:32;;;;;;;4.25;1.92;;;8.20;53.90;;;;;;5057480;28;20077;-82
2021/12/20 10:39:00;;;;;;;6.60;3.92;;;8.50;53.60;;;;;;5057405;28;20027;-82
2021/12/20 10:41:50;;;;;;;5.32;2.78;;;9.30;52.80;;;;;;5075251;28;20480;-83
2021/12/20 10:44:18;;;;;;;4.63;2.38;;;8.80;52.00;;;;;;5075058;28;20111;-82
2021/12/20 10:46:56;;;;;;;6.07;3.10;;;8.60;53.50;;;;;;5075004;28;20060;-82
2021/12/20 10:49:29;;;;;;;6.97;2.50;;;8.50;53.50;;;;;;5067057;28;20472;-86
2021/12/20 10:51:56;;;;;;;5.18;3.25;;;8.20;54.10;;;;;;5092869;28;20482;-81
2021/12/20 10:54:29;;;;;;;4.60;2.42;;;8.40;54.30;;;;;;5073111;28;20055;-82
2021/12/20 10:57:08;;;;;;;6.05;2.72;;;8.70;54.00;;;;;;5073574;28;20356;-82
2021/12/20 10:59:49;;;;;;;4.63;2.25;;;8.80;54.20;;;;;;5075258;28;20403;-83
2021/12/20 11:03:09;;;;;;;5.22;2.72;;;7.90;54.10;;;;;;5073311;28;20483;-81
2021/12/20 11:05:23;;;;;;;5.35;3.30;;;8.30;54.70;;;;;;5074373;28;20025;-80
2021/12/20 11:10:38;;;;;;;4.60;2.05;;;8.90;53.90;;;;;;5074689;28;20027;-81
2021/12/20 11:13:16;;;;;;;6.13;2.35;;;8.80;54.20;;;;;;5073549;28;20471;-80
2021/12/20 11:15:41;;;;;;;6.05;2.38;;;9.00;53.30;;;;;;5073176;28;20020;-81
2021/12/20 11:18:15;;;;;;;4.35;2.40;;;8.80;53.60;;;;;;5073234;28;20028;-81
2021/12/20 11:20:40;;;;;;;5.22;2.00;;;8.60;53.40;;;;;;5074356;28;20082;-80
2021/12/20 11:23:28;;;;;;;5.93;2.33;;;8.10;54.30;;;;;;5072749;28;20032;-83
2021/12/20 11:26:06;;;;;;;4.65;2.10;;;8.00;55.30;;;;;;5072824;28;20101;-82
2021/12/20 11:28:31;;;;;;;6.68;3.13;;;8.10;54.50;;;;;;5072810;28;20026;-81
2021/12/20 11:30:57;;;;;;;4.95;2.47;;;7.90;54.90;;;;;;5072942;28;20495;-81
2021/12/20 11:33:23;;;;;;;5.35;2.72;;;8.30;55.30;;;;;;5072939;28;20025;-81
2021/12/20 11:35:51;;;;;;;6.05;3.22;;;8.90;53.90;;;;;;5072552;28;20029;-81
2021/12/20 11:38:17;;;;;;;4.30;2.03;;;9.40;53.80;;;;;;5073746;28;20043;-81
2021/12/20 11:40:43;;;;;;;5.03;2.05;;;9.30;53.20;;;;;;5073999;28;20056;-82
2021/12/20 11:43:09;;;;;;;4.75;2.15;;;9.30;52.80;;;;;;5073734;28;20028;-81
2021/12/20 11:45:35;;;;;;;4.07;1.90;;;9.40;52.80;;;;;;5072556;28;20036;-80
2021/12/20 11:48:13;;;;;;;3.63;1.90;;;8.80;53.30;;;;;;5072662;28;20021;-81
2021/12/20 11:50:42;;;;;;;4.45;2.00;;;8.80;53.10;;;;;;5074310;28;20028;-82
2021/12/20 11:53:21;;;;;;;4.15;2.20;;;8.90;53.60;;;;;;5072678;28;20048;-82
2021/12/20 11:55:53;;;;;;;2.92;1.58;;;9.00;52.70;;;;;;5071548;28;20094;-81
2021/12/20 11:58:24;;;;;;;3.95;1.90;;;9.10;53.00;;;;;;5073749;28;20048;-81
2021/12/20 12:00:58;;;;;;;4.65;1.80;;;9.30;51.90;;;;;;5072454;28;20024;-81
2021/12/20 12:03:29;;;;;;;4.07;2.17;;;8.70;52.50;;;;;;5073288;28;20031;-81
2021/12/20 12:06:05;;;;;;;;;;;7.90;54.50;;;;;;5073931;28;20115;-82
2021/12/20 12:08:37;;;;;;;3.45;1.80;;;8.20;54.10;;;;;;5073245;28;19947;-80
2021/12/20 12:11:09;;;;;;;4.82;2.10;;;8.50;53.40;;;;;;5072249;28;20052;-81
2021/12/20 12:13:57;;;;;;;4.20;2.10;;;8.50;53.50;;;;;;5072171;28;20158;-83
2021/12/20 12:16:28;;;;;;;4.05;1.90;;;8.70;52.10;;;;;;5073756;28;20021;-81
2021/12/20 12:18:57;;;;;;;3.40;1.55;;;8.70;52.80;;;;;;5072039;28;20020;-81
2021/12/20 12:21:32;;;;;;;5.55;1.60;;;8.90;52.20;;;;;;5072310;28;20028;-80
2021/12/20 12:24:04;;;;;;;3.80;1.85;;;8.80;51.70;;;;;;5073418;28;20031;-80
2021/12/20 12:26:39;;;;;;;3.10;1.65;;;8.60;52.90;;;;;;5072500;28;20133;-80
2021/12/20 12:29:15;;;;;;;3.22;1.63;;;8.30;52.60;;;;;;5072214;28;20467;-81
2021/12/20 12:32:08;;;;;;;2.80;1.60;;;8.30;53.10;;;;;;5071913;28;20035;-84
2021/12/20 12:34:40;;;;;;;3.38;1.50;;;8.10;52.80;;;;;;5071382;28;20544;-80
2021/12/20 12:37:19;;;;;;;3.00;1.80;;;8.00;53.40;;;;;;5072026;28;20071;-80
2021/12/20 12:39:49;;;;;;;2.30;1.33;;;8.40;53.20;;;;;;5072258;28;20046;-83
2021/12/20 12:42:39;;;;;;;6.93;1.83;;;8.50;52.40;;;;;;5073248;28;20025;-80
2021/12/20 12:45:07;;;;;;;4.00;1.50;;;8.10;52.80;;;;;;5071360;28;20285;-83
2021/12/20 12:47:36;;;;;;;4.15;1.60;;;7.90;53.40;;;;;;5071393;28;20399;-80
2021/12/20 12:50:23;;;;;;;4.20;1.42;;;8.00;54.00;;;;;;5071897;28;20468;-80
2021/12/20 12:52:52;;;;;;;2.95;1.23;;;8.00;53.40;;;;;;5071752;28;20082;-81
2021/12/20 12:55:40;;;;;;;2.85;1.50;;;7.90;53.50;;;;;;5071600;28;20039;-82
2021/12/20 12:58:20;;;;;;;3.85;2.13;;;8.00;53.30;;;;;;5073245;28;20055;-81
2021/12/20 13:00:56;;;;;;;4.40;2.37;;;8.20;53.20;;;;;;5071776;28;20024;-80
2021/12/20 13:03:24;;;;;;;4.03;1.90;;;8.30;53.20;;;;;;5072321;28;20264;-80
2021/12/20 13:05:50;;;;;;;3.15;1.40;;;8.60;52.00;;;;;;5071282;28;20032;-81
2021/12/20 13:08:15;;;;;;;3.40;1.85;;;8.20;52.50;;;;;;5075136;28;20486;-82
2021/12/20 13:10:43;;;;;;;4.22;2.20;;;8.10;52.80;;;;;;5075827;28;20032;-82
2021/12/20 13:13:53;;;;;;;3.38;1.50;;;8.10;52.70;;;;;;5076930;28;20021;-81
2021/12/20 13:16:10;;;;;;;2.70;1.33;;;8.10;52.70;;;;;;5071925;28;20549;-82
2021/12/20 13:18:52;;;;;;;3.37;1.30;;;8.10;53.40;;;;;;5075791;28;20032;-81
2021/12/20 13:21:35;;;;;;;3.58;1.55;;;7.70;53.00;;;;;;5076566;28;20793;-80
2021/12/20 13:24:00;;;;;;;3.20;1.50;;;8.10;53.70;;;;;;5075480;28;20028;-81
2021/12/20 13:26:31;;;;;;;3.80;1.73;;;8.20;52.90;;;;;;5075407;28;20047;-79
2021/12/20 13:29:03;;;;;;;3.10;1.60;;;8.50;52.70;;;;;;5074991;28;20074;-82
2021/12/20 13:31:37;;;;;;;3.35;1.60;;;8.40;52.20;;;;;;5075179;28;20028;-82
2021/12/20 13:34:05;;;;;;;8.23;2.35;;;8.00;52.80;;;;;;5075215;28;20112;-81
2021/12/20 13:36:34;;;;;;;3.35;1.30;;;8.00;53.40;;;;;;5075470;28;20036;-81
2021/12/20 13:39:03;;;;;;;3.65;1.60;;;8.20;53.00;;;;;;5076172;28;20505;-83
2021/12/20 13:41:34;;;;;;;3.83;1.48;;;8.20;52.50;;;;;;5075077;28;20025;-80
2021/12/20 13:44:12;;;;;;;3.05;1.48;;;8.00;53.30;;;;;;5075214;28;20413;-80
2021/12/20 13:46:48;;;;;;;3.17;1.38;;;8.10;52.80;;;;;;5074870;28;20032;-80
2021/12/20 13:49:25;;;;;;;3.35;1.50;;;8.30;52.80;;;;;;5076030;28;20368;-81
2021/12/20 13:52:05;;;;;;;3.78;1.45;;;8.20;52.60;;;;;;5075176;28;20450;-80
2021/12/20 13:54:35;;;;;;;3.15;1.70;;;8.30;52.30;;;;;;5075447;28;20052;-80
2021/12/20 13:57:14;;;;;;;3.47;1.50;;;8.10;52.60;;;;;;5074909;28;20463;-80
2021/12/20 14:00:02;;;;;;;3.50;1.40;;;8.20;52.80;;;;;;5074673;28;20055;-81
2021/12/20 14:02:41;;;;;;;2.72;1.40;;;8.20;52.60;;;;;;5075688;28;20013;-83
2021/12/20 14:05:11;;;;;;;2.60;1.45;;;8.30;52.80;;;;;;5074533;28;20032;-81
2021/12/20 14:07:42;;;;;;;5.97;2.45;;;7.80;53.20;;;;;;5074654;28;20025;-84
2021/12/20 14:10:08;;;;;;;3.53;1.80;;;7.70;53.10;;;;;;5075595;28;20025;-82
2021/12/20 14:12:40;;;;;;;3.78;1.90;;;7.90;53.70;;;;;;5074210;28;20078;-81
2021/12/20 14:15:18;;;;;;;3.10;1.80;;;8.20;53.30;;;;;;5074482;28;20024;-83
2021/12/20 14:18:04;;;;;;;6.40;2.90;;;8.30;52.60;;;;;;5074230;28;20375;-82
2021/12/20 14:20:49;;;;;;;3.75;1.90;;;8.10;53.20;;;;;;5074142;28;20052;-83
2021/12/20 14:23:43;;;;;;;5.50;2.10;;;8.20;53.40;;;;;;5075175;28;20079;-81
2021/12/20 14:26:13;;;;;;;4.60;2.03;;;8.20;53.50;;;;;;5073622;28;20044;-81
2021/12/20 14:28:45;;;;;;;4.22;2.28;;;8.00;54.30;;;;;;5074257;28;20021;-80
2021/12/20 14:31:21;;;;;;;5.00;2.67;;;8.00;54.30;;;;;;5075198;28;20020;-80
2021/12/20 14:33:52;;;;;;;4.72;2.22;;;7.70;54.70;;;;;;5073780;28;20025;-86
2021/12/20 14:36:22;;;;;;;3.90;2.00;;;7.80;54.80;;;;;;5074676;28;20028;-81
2021/12/20 14:38:50;;;;;;;4.50;2.17;;;7.60;55.10;;;;;;5073780;28;20059;-80
2021/12/20 14:41:18;;;;;;;3.70;2.17;;;7.60;55.30;;;;;;5074995;28;20067;-80
2021/12/20 14:43:45;;;;;;;4.20;2.00;;;7.90;55.00;;;;;;5074140;28;20464;-81
2021/12/20 14:46:17;;;;;;;5.32;2.83;;;7.80;55.00;;;;;;5075034;28;20039;-83
2021/12/20 14:48:47;;;;;;;5.95;3.38;;;7.70;55.60;;;;;;5075374;28;20021;-86
2021/12/20 14:51:28;;;;;;;5.47;2.42;;;7.70;55.60;;;;;;5074267;28;20032;-90
2021/12/20 14:54:19;;;;;;;5.25;2.95;;;7.70;55.70;;;;;;5073833;28;20044;-85
2021/12/20 14:56:56;;;;;;;6.45;3.63;;;7.60;55.80;;;;;;5074815;28;20470;-80
2021/12/20 14:59:24;;;;;;;5.25;2.45;;;7.90;55.40;;;;;;5073849;28;20034;-86
2021/12/20 15:01:50;;;;;;;5.88;2.70;;;7.90;55.10;;;;;;5073750;28;20055;-82
2021/12/20 15:04:16;;;;;;;5.35;2.90;;;8.00;55.00;;;;;;5073318;28;20028;-81
2021/12/20 15:06:52;;;;;;;6.45;3.50;;;7.90;55.10;;;;;;5073294;28;20086;-82
2021/12/20 15:09:18;;;;;;;9.30;4.32;;;7.80;55.90;;;;;;5073365;28;20496;-88
2021/12/20 15:11:44;;;;;;;6.72;3.28;;;7.80;55.70;;;;;;5073618;28;20043;-83
2021/12/20 15:14:10;;;;;;;4.97;2.50;;;7.70;55.70;;;;;;5073820;28;20025;-81
2021/12/20 15:16:36;;;;;;;4.93;2.70;;;7.60;55.50;;;;;;5073670;28;20479;-82
2021/12/20 15:19:03;;;;;;;5.55;3.03;;;7.30;56.70;;;;;;5074277;28;20020;-81
2021/12/20 15:21:29;;;;;;;5.78;2.72;;;7.30;56.80;;;;;;5073201;28;20035;-80
2021/12/20 15:23:58;;;;;;;4.53;2.60;;;7.40;56.70;;;;;;5073026;28;20107;-82
2021/12/20 15:26:25;;;;;;;5.57;3.25;;;7.30;55.90;;;;;;5072939;28;20036;-81
2021/12/20 15:28:51;;;;;;;5.32;2.60;;;7.20;57.00;;;;;;5072329;28;20025;-81
2021/12/20 15:31:17;;;;;;;5.60;3.03;;;7.00;56.80;;;;;;5072913;28;20029;-80
2021/12/20 15:33:45;;;;;;;6.68;2.50;;;7.20;56.80;;;;;;5073927;28;20052;-81
2021/12/20 15:36:11;;;;;;;6.10;3.58;;;7.10;56.60;;;;;;5072836;28;20061;-80
2021/12/20 15:38:37;;;;;;;7.70;3.72;;;6.90;57.40;;;;;;5072890;28;20036;-82
2021/12/20 15:41:03;;;;;;;32.15;13.15;;;7.10;57.10;;;;;;5074056;28;20064;-82
2021/12/20 15:43:29;;;;;;;23.10;10.35;;;7.00;57.60;;;;;;5073013;28;20048;-80
2021/12/20 15:45:54;;;;;;;7.07;3.67;;;7.00;57.20;;;;;;5072287;28;20344;-80
2021/12/20 15:48:22;;;;;;;5.95;3.03;;;6.60;58.00;;;;;;5072811;28;20020;-81
2021/12/20 15:50:49;;;;;;;9.90;4.95;;;6.70;58.60;;;;;;5072808;28;20028;-82
2021/12/20 15:53:16;;;;;;;21.98;11.13;;;6.70;58.60;;;;;;5072340;28;20040;-82
2021/12/20 15:55:43;;;;;;;7.90;4.88;;;7.10;58.10;;;;;;5073806;28;20028;-81
2021/12/20 15:58:10;;;;;;;11.07;6.28;;;7.10;57.40;;;;;;5072409;28;20029;-81
2021/12/20 16:00:42;;;;;;;6.35;3.20;;;6.60;58.20;;;;;;5073817;28;20482;-83
2021/12/20 16:03:07;;;;;;;9.15;3.75;;;6.50;59.20;;;;;;5072454;28;20527;-81
2021/12/20 16:05:33;;;;;;;11.27;6.20;;;6.60;59.30;;;;;;5072197;28;20093;-82
2021/12/20 16:08:18;;;;;;;10.02;5.75;;;6.80;59.10;;;;;;5073670;28;20103;-85
2021/12/20 16:10:44;;;;;;;34.13;15.65;;;6.80;58.70;;;;;;5072827;28;20546;-83
2021/12/20 16:13:29;;;;;;;17.27;8.50;;;6.90;58.80;;;;;;5073547;28;20103;-83
2021/12/20 16:15:57;;;;;;;16.73;8.23;;;6.90;59.10;;;;;;5072115;28;20035;-82
2021/12/20 16:18:24;;;;;;;6.07;3.47;;;6.80;59.20;;;;;;5072324;28;20479;-81
2021/12/20 16:20:50;;;;;;;6.53;3.83;;;6.80;59.20;;;;;;5073557;28;20036;-82
2021/12/20 16:23:19;;;;;;;10.55;5.30;;;6.80;58.80;;;;;;5071873;28;20020;-82
2021/12/20 16:25:58;;;;;;;8.35;4.72;;;7.00;58.30;;;;;;5072019;28;20436;-81
2021/12/20 16:28:24;;;;;;;9.07;4.63;;;7.00;58.00;;;;;;5072493;28;20036;-81
2021/12/20 16:30:54;;;;;;;11.27;6.18;;;6.90;58.60;;;;;;5072010;28;20028;-82
2021/12/20 16:33:22;;;;;;;8.52;4.43;;;7.00;58.30;;;;;;5072281;28;20033;-80
2021/12/20 16:35:48;;;;;;;15.55;7.45;;;7.00;57.90;;;;;;5073073;28;20028;-81
2021/12/20 16:38:16;;;;;;;8.80;4.57;;;7.10;58.10;;;;;;5072068;28;20039;-83
2021/12/20 16:40:58;;;;;;;6.15;3.40;;;7.30;56.80;;;;;;5072011;28;20111;-82
2021/12/20 16:43:23;;;;;;;6.43;3.58;;;7.30;57.10;;;;;;5072008;28;20463;-80
2021/12/20 16:48:22;;;;;;;7.45;4.97;;;7.40;57.70;;;;;;5073259;28;20394;-81
2021/12/20 16:51:00;;;;;;;6.28;3.67;;;7.10;57.00;;;;;;5071635;28;20127;-84